Time;durP1;ratioP1;P1;durP2;ratioP2;P2;SDS_P1;SDS_P2;PMS_P1;PMS_P2;Temp;Humidity;BMP_temperature;BMP_pressure;BME280_temperature;BME280_humidity;BME280_pressure;Samples;Min_cycle;Max_cycle;Signal;HPM_P1;HPM_P2
2021/06/29 00:01:58;;;;;;;3.42;1.88;;;;;;;19.45;100.00;98271.25;4855849;29;20057;-55
2021/06/29 00:04:24;;;;;;;2.75;2.50;;;;;;;19.43;100.00;98267.88;4854474;29;20048;-54
2021/06/29 00:06:50;;;;;;;4.95;2.53;;;;;;;19.35;100.00;98268.63;4858450;29;20132;-54
2021/06/29 00:09:15;;;;;;;5.50;2.33;;;;;;;19.23;100.00;98277.66;4857605;29;20079;-55
2021/06/29 00:11:42;;;;;;;4.47;2.65;;;;;;;19.24;100.00;98278.47;4858038;29;20052;-55
2021/06/29 00:14:08;;;;;;;6.18;2.40;;;;;;;19.24;100.00;98276.69;4858119;29;20189;-52
2021/06/29 00:16:34;;;;;;;2.63;2.20;;;;;;;19.10;100.00;98282.38;4856719;29;20144;-55
2021/06/29 00:19:00;;;;;;;5.97;2.40;;;;;;;19.19;100.00;98284.16;4848680;29;20037;-55
2021/06/29 00:21:25;;;;;;;7.15;2.60;;;;;;;19.11;100.00;98276.13;4862454;29;20049;-53
2021/06/29 00:23:51;;;;;;;5.38;2.67;;;;;;;19.09;100.00;98275.44;4856829;29;20529;-52
2021/06/29 00:26:20;;;;;;;6.57;2.90;;;;;;;18.97;100.00;98261.59;5337340;23;20118;-55
2021/06/29 00:28:46;;;;;;;5.90;2.50;;;;;;;18.95;100.00;98270.59;4834989;29;20563;-54
2021/06/29 00:31:12;;;;;;;3.05;2.70;;;;;;;19.10;100.00;98268.38;4855625;29;20041;-56
2021/06/29 00:33:37;;;;;;;3.13;2.83;;;;;;;19.12;100.00;98264.63;4857683;29;20060;-55
2021/06/29 00:36:04;;;;;;;6.47;2.45;;;;;;;19.05;100.00;98271.44;4854383;29;20049;-55
2021/06/29 00:38:29;;;;;;;2.80;2.50;;;;;;;19.09;100.00;98264.91;4841119;29;20516;-55
2021/06/29 00:40:55;;;;;;;5.88;2.63;;;;;;;19.00;100.00;98274.47;4841144;29;20060;-55
2021/06/29 00:43:21;;;;;;;3.78;2.80;;;;;;;18.96;100.00;98281.00;4842017;29;20073;-55
2021/06/29 00:45:47;;;;;;;4.13;2.60;;;;;;;18.86;100.00;98280.16;4839343;29;20420;-55
2021/06/29 00:48:12;;;;;;;3.28;2.33;;;;;;;18.82;100.00;98288.50;4842160;29;20049;-56
2021/06/29 00:50:39;;;;;;;2.83;2.38;;;;;;;18.77;100.00;98286.28;4840565;29;20054;-55
2021/06/29 00:53:05;;;;;;;7.28;2.70;;;;;;;18.76;100.00;98287.22;4845841;29;20045;-55
2021/06/29 00:55:31;;;;;;;4.72;2.90;;;;;;;18.76;100.00;98281.13;4857464;29;20577;-55
2021/06/29 00:57:58;;;;;;;5.72;2.63;;;;;;;18.85;100.00;98286.41;4835278;29;20128;-55
2021/06/29 01:00:24;;;;;;;4.95;2.70;;;;;;;18.83;100.00;98285.72;4854319;29;20064;-54
2021/06/29 01:02:50;;;;;;;6.68;2.80;;;;;;;18.88;100.00;98278.25;4849297;29;20042;-57
2021/06/29 01:05:16;;;;;;;8.20;3.40;;;;;;;18.93;100.00;98280.44;4852019;29;20045;-55
2021/06/29 01:07:41;;;;;;;4.07;3.03;;;;;;;18.94;100.00;98274.22;4856370;29;20041;-55
2021/06/29 01:10:08;;;;;;;2.97;2.65;;;;;;;19.04;100.00;98273.25;4859943;29;20060;-55
2021/06/29 01:12:34;;;;;;;5.38;2.95;;;;;;;19.09;100.00;98274.63;4835956;29;20053;-53
2021/06/29 01:15:00;;;;;;;7.85;3.22;;;;;;;19.12;100.00;98288.34;4858288;29;20569;-56
2021/06/29 01:17:27;;;;;;;4.55;3.15;;;;;;;19.16;100.00;98289.69;4860021;29;20046;-55
2021/06/29 01:19:53;;;;;;;4.82;3.08;;;;;;;19.15;100.00;98285.44;4856463;29;20076;-54
2021/06/29 01:22:20;;;;;;;10.07;4.22;;;;;;;19.14;100.00;98283.75;4845466;29;20093;-52
2021/06/29 01:24:51;;;;;;;5.40;3.65;;;;;;;19.09;100.00;98291.25;4861038;29;20102;-56
2021/06/29 01:32:22;;;;;;;2.97;2.60;;;;;;;18.99;100.00;98285.16;4856876;29;20053;-52
2021/06/29 01:34:47;;;;;;;7.05;3.10;;;;;;;18.98;100.00;98300.13;4856826;29;20105;-55
2021/06/29 01:37:15;;;;;;;3.33;3.03;;;;;;;18.97;100.00;98284.47;4842172;29;20053;-54
2021/06/29 01:39:54;;;;;;;6.90;3.35;;;;;;;18.99;100.00;98283.38;4824900;29;20042;-55
2021/06/29 01:42:20;;;;;;;7.95;3.45;;;;;;;18.97;100.00;98279.19;4844218;29;20088;-55
2021/06/29 01:44:45;;;;;;;6.32;3.47;;;;;;;19.03;100.00;98286.53;4860534;29;20774;-55
2021/06/29 01:47:13;;;;;;;3.55;3.25;;;;;;;19.04;100.00;98294.31;4860710;29;20045;-57
2021/06/29 01:49:39;;;;;;;4.72;3.22;;;;;;;19.04;100.00;98285.56;4848574;29;20053;-55
2021/06/29 01:52:05;;;;;;;4.70;3.13;;;;;;;19.00;100.00;98286.81;4858962;29;22050;-55
2021/06/29 01:54:30;;;;;;;4.93;3.25;;;;;;;18.98;100.00;98289.59;4859002;29;20105;-56
2021/06/29 01:56:56;;;;;;;7.53;3.38;;;;;;;19.01;100.00;98293.75;4855471;29;20548;-55
2021/06/29 01:59:23;;;;;;;5.68;3.40;;;;;;;19.03;100.00;98290.00;4857284;29;20057;-55
2021/06/29 02:01:48;;;;;;;4.78;3.30;;;;;;;19.08;100.00;98292.22;4859160;29;20049;-55
2021/06/29 02:04:14;;;;;;;6.10;3.65;;;;;;;19.11;100.00;98297.19;4859992;29;20052;-56
2021/06/29 02:06:41;;;;;;;7.45;4.22;;;;;;;19.12;100.00;98292.75;4855347;29;20101;-56
2021/06/29 02:09:08;;;;;;;8.07;4.15;;;;;;;19.14;100.00;98290.84;4855973;29;20041;-56
2021/06/29 02:11:38;;;;;;;4.85;3.70;;;;;;;19.19;100.00;98293.88;4849319;29;20046;-55
2021/06/29 02:14:05;;;;;;;6.65;2.97;;;;;;;19.15;100.00;98285.44;4856897;29;20061;-55
2021/06/29 02:16:31;;;;;;;3.38;2.80;;;;;;;19.18;100.00;98292.22;4860636;29;20505;-55
2021/06/29 02:18:57;;;;;;;5.18;2.70;;;;;;;19.20;100.00;98290.28;4843489;29;20037;-55
2021/06/29 02:21:23;;;;;;;3.58;2.70;;;;;;;19.27;100.00;98294.00;4842472;29;20042;-55
2021/06/29 02:23:49;;;;;;;5.15;2.90;;;;;;;19.22;100.00;98285.69;4855077;29;20041;-54
2021/06/29 02:26:14;;;;;;;4.43;2.67;;;;;;;19.17;100.00;98293.19;4853589;29;20105;-55
2021/06/29 02:28:40;;;;;;;5.30;4.00;;;;;;;19.17;100.00;98293.19;4849447;29;20078;-55
2021/06/29 02:31:07;;;;;;;7.43;3.70;;;;;;;19.18;100.00;98289.56;4860123;29;20072;-55
2021/06/29 02:33:32;;;;;;;6.93;4.47;;;;;;;19.19;100.00;98289.44;4859600;29;20148;-55
2021/06/29 02:35:58;;;;;;;6.50;4.20;;;;;;;19.28;100.00;98290.38;4841071;29;20627;-58
2021/06/29 02:38:26;;;;;;;6.55;4.00;;;;;;;19.25;100.00;98296.78;4854081;29;20046;-53
2021/06/29 02:40:53;;;;;;;6.87;4.53;;;;;;;19.27;100.00;98296.63;4844018;29;20045;-55
2021/06/29 02:43:19;;;;;;;5.22;3.58;;;;;;;19.28;100.00;98301.75;4842313;29;20544;-55
2021/06/29 02:45:45;;;;;;;5.50;3.47;;;;;;;19.31;100.00;98306.75;4833283;29;20140;-55
2021/06/29 02:48:11;;;;;;;4.22;3.47;;;;;;;19.35;100.00;98304.69;4858493;29;20177;-54
2021/06/29 02:50:38;;;;;;;3.85;3.45;;;;;;;19.38;100.00;98310.50;4859402;29;20069;-55
2021/06/29 02:53:04;;;;;;;3.25;2.95;;;;;;;19.38;100.00;98305.22;4857688;29;20045;-51
2021/06/29 02:55:29;;;;;;;4.30;3.42;;;;;;;19.38;100.00;98301.75;4858323;29;20052;-54
2021/06/29 02:57:55;;;;;;;6.32;3.80;;;;;;;19.36;100.00;98296.63;4857323;29;20536;-54
2021/06/29 03:00:22;;;;;;;4.50;3.20;;;;;;;19.37;100.00;98292.16;4847356;29;20046;-53
2021/06/29 03:02:48;;;;;;;4.55;3.10;;;;;;;19.30;100.00;98296.38;4809606;29;20046;-54
2021/06/29 03:05:15;;;;;;;3.50;3.15;;;;;;;19.28;100.00;98295.66;4845721;29;20048;-54
2021/06/29 03:07:41;;;;;;;8.43;3.50;;;;;;;19.26;100.00;98305.53;4855986;29;20037;-56
2021/06/29 03:10:07;;;;;;;6.60;3.83;;;;;;;19.23;100.00;98296.09;4860031;29;20053;-53
2021/06/29 03:12:34;;;;;;;6.05;3.95;;;;;;;19.28;100.00;98303.56;4851356;29;20062;-54
2021/06/29 03:15:01;;;;;;;9.00;3.67;;;;;;;19.31;100.00;98305.94;4854392;29;20409;-55
2021/06/29 03:17:28;;;;;;;5.45;3.83;;;;;;;19.26;100.00;98303.69;4845141;29;20536;-55
2021/06/29 03:19:54;;;;;;;6.15;4.30;;;;;;;19.30;100.00;98313.00;4843528;29;20050;-54
2021/06/29 03:22:20;;;;;;;5.72;4.00;;;;;;;19.33;100.00;98311.88;4855236;29;20075;-52
2021/06/29 03:24:46;;;;;;;5.47;4.07;;;;;;;19.33;100.00;98310.09;4836014;29;20053;-54
2021/06/29 03:27:12;;;;;;;7.32;3.25;;;;;;;19.34;100.00;98310.91;4856692;29;20520;-55
2021/06/29 03:29:38;;;;;;;6.70;3.67;;;;;;;19.34;100.00;98305.63;4853083;29;20070;-55
2021/06/29 03:32:05;;;;;;;5.43;3.08;;;;;;;19.38;100.00;98304.38;4858303;29;20441;-56
2021/06/29 03:34:31;;;;;;;5.90;3.30;;;;;;;19.38;100.00;98304.38;4852223;29;20045;-54
2021/06/29 03:36:57;;;;;;;6.20;3.47;;;;;;;19.44;100.00;98309.09;5322362;23;20078;-53
2021/06/29 03:39:23;;;;;;;3.80;2.53;;;;;;;19.50;100.00;98307.72;4820584;29;20521;-56
2021/06/29 03:41:49;;;;;;;5.75;3.60;;;;;;;19.50;100.00;98303.28;4819715;29;20109;-57
2021/06/29 03:44:14;;;;;;;3.83;3.08;;;;;;;19.60;100.00;98295.34;4832616;29;20525;-56
2021/06/29 03:46:40;;;;;;;5.25;3.53;;;;;;;19.68;100.00;98298.91;4839555;29;20054;-55
2021/06/29 03:49:06;;;;;;;6.18;3.58;;;;;;;19.79;100.00;98300.56;4820638;29;20049;-55
2021/06/29 03:51:31;;;;;;;3.83;3.00;;;;;;;19.84;100.00;98309.69;4812291;29;20058;-56
2021/06/29 03:53:57;;;;;;;4.65;2.95;;;;;;;19.88;100.00;98313.72;4824253;29;20050;-54
2021/06/29 03:56:33;;;;;;;8.10;2.83;;;;;;;19.89;100.00;98318.00;5279092;23;20059;31
2021/06/29 03:59:07;;;;;;;9.00;3.10;;;;;;;19.81;100.00;98304.72;4829582;29;20440;-55
2021/06/29 04:01:33;;;;;;;4.10;2.58;;;;;;;19.82;100.00;98316.94;4838497;29;20578;-53
2021/06/29 04:03:59;;;;;;;2.92;2.25;;;;;;;19.89;100.00;98311.91;4816471;29;20038;-59
2021/06/29 04:06:36;;;;;;;3.38;2.17;;;;;;;19.97;100.00;98319.09;4835686;29;20046;-59
2021/06/29 04:09:07;;;;;;;4.18;3.10;;;;;;;19.98;100.00;98311.06;4831021;29;20502;-59
2021/06/29 04:11:33;;;;;;;3.10;2.40;;;;;;;20.07;100.00;98311.97;4840022;29;20042;-58
2021/06/29 04:13:59;;;;;;;3.92;2.47;;;;;;;20.18;100.00;98311.78;4838446;29;20402;-59
2021/06/29 04:16:25;;;;;;;3.75;2.75;;;;;;;20.33;100.00;98318.28;4840610;29;20046;-59
2021/06/29 04:18:50;;;;;;;2.92;2.50;;;;;;;20.28;100.00;98312.56;4823297;29;20057;-59
2021/06/29 04:21:17;;;;;;;3.58;2.22;;;;;;;20.35;100.00;98308.41;4839288;29;20081;-54
2021/06/29 04:23:44;;;;;;;5.25;2.22;;;;;;;20.47;100.00;98323.03;4833236;29;20061;-56
2021/06/29 04:26:13;;;;;;;3.80;2.15;;;;;;;20.50;100.00;98317.47;4831090;29;20359;-59
2021/06/29 04:28:40;;;;;;;2.40;1.92;;;;;;;20.51;100.00;98324.44;4831309;29;20420;-59
2021/06/29 04:31:06;;;;;;;2.42;2.15;;;;;;;20.51;100.00;98320.97;4831043;29;20521;-59
2021/06/29 04:33:34;;;;;;;2.83;1.95;;;;;;;20.57;100.00;98326.44;4831733;29;20044;-59
2021/06/29 04:36:00;;;;;;;2.53;1.90;;;;;;;20.56;100.00;98319.53;4830919;29;20057;-58
2021/06/29 04:38:27;;;;;;;4.85;2.30;;;;;;;20.52;100.00;98317.31;4829874;29;20102;-59
2021/06/29 04:40:52;;;;;;;3.05;2.00;;;;;;;20.72;100.00;98321.53;4831079;29;20042;-58
2021/06/29 04:43:18;;;;;;;5.15;2.17;;;;;;;20.82;100.00;98321.44;4839969;29;20109;-59
2021/06/29 04:45:43;;;;;;;3.80;2.38;;;;;;;20.83;100.00;98321.28;4831521;29;20406;-59
2021/06/29 04:48:28;;;;;;;3.45;1.98;;;;;;;20.79;100.00;98321.72;5303069;23;20076;-57
2021/06/29 04:50:54;;;;;;;2.80;2.17;;;;;;;20.73;100.00;98318.69;4858660;29;20041;-60
2021/06/29 04:53:19;;;;;;;3.20;1.98;;;;;;;20.76;100.00;98314.13;4859382;29;20067;-59
2021/06/29 04:55:45;;;;;;;6.45;2.28;;;;;;;20.82;100.00;98327.56;4812943;29;20049;-58
2021/06/29 04:58:11;;;;;;;3.28;2.00;;;;;;;20.71;100.00;98315.41;4850649;29;20138;-59
2021/06/29 05:00:39;;;;;;;4.20;2.22;;;;;;;20.63;100.00;98317.94;4848058;29;20042;-55
2021/06/29 05:03:05;;;;;;;3.50;1.88;;;;;;;20.61;100.00;98330.47;4847877;29;20048;-55
2021/06/29 05:05:31;;;;;;;1.77;1.67;;;;;;;20.59;100.00;98318.41;4846306;29;20421;-55
2021/06/29 05:07:57;;;;;;;3.45;2.17;;;;;;;20.57;100.00;98326.44;4846705;29;20041;-54
2021/06/29 05:10:22;;;;;;;7.07;2.13;;;;;;;20.58;100.00;98316.72;4848119;29;20046;-56
2021/06/29 05:12:48;;;;;;;2.95;1.80;;;;;;;20.57;100.00;98307.97;4848132;29;20497;-52
2021/06/29 05:15:14;;;;;;;2.72;1.90;;;;;;;20.61;100.00;98312.00;4847915;29;20049;-54
2021/06/29 05:17:39;;;;;;;4.57;2.15;;;;;;;20.66;100.00;98315.03;4850588;29;20081;-53
2021/06/29 05:20:06;;;;;;;2.85;2.25;;;;;;;20.70;100.00;98316.38;4858460;29;20094;-55
2021/06/29 05:22:32;;;;;;;3.53;2.08;;;;;;;20.72;100.00;98308.31;4855947;29;20057;-55
2021/06/29 05:24:58;;;;;;;4.35;1.90;;;;;;;20.73;100.00;98310.78;4855936;29;20473;-57
2021/06/29 05:27:24;;;;;;;3.47;1.45;;;;;;;20.69;100.00;98314.72;4849005;29;20113;-55
2021/06/29 05:29:50;;;;;;;1.75;1.38;;;;;;;20.67;100.00;98313.22;4846982;29;20042;-57
2021/06/29 05:32:15;;;;;;;1.85;1.65;;;;;;;20.64;100.00;98324.88;4847157;29;20042;-57
2021/06/29 05:34:41;;;;;;;4.38;1.88;;;;;;;20.46;100.00;98321.41;4850319;29;20046;-58
2021/06/29 05:37:07;;;;;;;3.85;2.20;;;;;;;20.27;100.00;98314.38;4850423;29;20132;-60
2021/06/29 05:39:32;;;;;;;8.60;2.70;;;;;;;20.32;100.00;98321.03;4840046;29;20668;-58
2021/06/29 05:41:58;;;;;;;2.35;2.15;;;;;;;20.44;100.00;98327.78;4851054;29;20599;-56
2021/06/29 05:44:24;;;;;;;2.67;2.05;;;;;;;20.66;100.00;98324.75;4848223;29;20050;-59
2021/06/29 05:46:51;;;;;;;4.25;2.50;;;;;;;20.79;100.00;98319.91;4851664;29;20055;-54
2021/06/29 05:49:17;;;;;;;3.17;2.50;;;;;;;20.97;100.00;98327.84;4849408;29;20049;-54
2021/06/29 05:51:45;;;;;;;6.80;2.60;;;;;;;21.15;100.00;98328.69;4855414;29;20423;-57
2021/06/29 05:54:12;;;;;;;3.95;2.83;;;;;;;21.55;100.00;98326.41;4856053;29;20052;-58
2021/06/29 05:56:39;;;;;;;4.43;2.55;;;;;;;21.66;95.50;98322.66;4854631;29;20466;-59
2021/06/29 05:59:05;;;;;;;3.85;2.50;;;;;;;21.74;95.71;98317.41;4851978;29;20080;-58
2021/06/29 06:01:31;;;;;;;2.47;2.28;;;;;;;21.65;94.33;98317.53;4855344;29;20070;-59
2021/06/29 06:03:56;;;;;;;2.60;2.03;;;;;;;21.55;96.23;98321.09;4852593;29;20114;-60
2021/06/29 06:06:22;;;;;;;6.18;2.70;;;;;;;21.38;98.42;98321.13;4852010;29;20447;-62
2021/06/29 06:08:48;;;;;;;4.38;2.08;;;;;;;21.20;100.00;98315.06;4855442;29;20089;-58
2021/06/29 06:11:13;;;;;;;3.60;2.22;;;;;;;21.14;100.00;98312.00;4865526;29;20535;-61
2021/06/29 06:13:39;;;;;;;4.65;1.98;;;;;;;21.10;100.00;98321.19;4853721;29;20041;-61
2021/06/29 06:16:05;;;;;;;2.75;2.05;;;;;;;21.03;99.66;98309.59;4854711;29;20452;-64
2021/06/29 06:18:31;;;;;;;3.92;2.78;;;;;;;20.93;100.00;98318.59;4852743;29;20212;-64
2021/06/29 06:20:57;;;;;;;3.30;2.42;;;;;;;20.98;100.00;98313.66;4856932;29;20564;-58
2021/06/29 06:23:23;;;;;;;3.47;2.20;;;;;;;20.96;100.00;98313.81;4849833;29;20113;-60
2021/06/29 06:25:49;;;;;;;5.75;1.90;;;;;;;21.04;100.00;98313.88;4850892;29;20132;-59
2021/06/29 06:28:14;;;;;;;2.10;1.77;;;;;;;21.05;99.06;98322.63;4854544;29;20507;-59
2021/06/29 06:30:41;;;;;;;7.85;1.90;;;;;;;21.00;98.67;98312.53;4856359;29;20068;-61
2021/06/29 06:33:08;;;;;;;4.35;2.15;;;;;;;21.00;100.00;98320.44;4853824;29;20524;-59
2021/06/29 06:35:35;;;;;;;2.75;1.88;;;;;;;21.15;97.66;98320.78;4861057;29;20053;-60
2021/06/29 06:38:01;;;;;;;2.28;1.83;;;;;;;21.48;93.95;98338.56;4857391;29;20615;-57
2021/06/29 06:40:27;;;;;;;2.58;1.63;;;;;;;21.81;90.99;98318.47;4857834;29;20148;-59
2021/06/29 06:42:52;;;;;;;2.58;1.90;;;;;;;22.00;87.60;98317.41;4847692;29;20132;-61
2021/06/29 06:45:23;;;;;;;2.30;1.83;;;;;;;22.00;86.71;98309.47;4854266;29;20060;-61
2021/06/29 06:47:52;;;;;;;3.55;2.10;;;;;;;22.29;85.84;98309.97;4851825;29;20143;-56
2021/06/29 06:50:18;;;;;;;2.80;1.80;;;;;;;22.11;85.26;98303.91;4854325;29;20132;-60
2021/06/29 06:52:44;;;;;;;3.90;2.15;;;;;;;21.76;87.61;98310.16;4855383;29;20079;-59
2021/06/29 06:55:10;;;;;;;2.20;1.73;;;;;;;21.51;89.40;98327.66;4856563;29;20101;-59
2021/06/29 06:57:36;;;;;;;2.60;1.90;;;;;;;21.20;93.01;98315.84;4855463;29;20483;-60
2021/06/29 07:00:05;;;;;;;4.05;2.45;;;;;;;21.07;96.69;98323.31;4855065;29;20068;-60
2021/06/29 07:02:31;;;;;;;2.25;1.90;;;;;;;20.90;98.56;98326.78;4852781;29;20088;-51
2021/06/29 07:04:56;;;;;;;3.85;2.20;;;;;;;20.81;100.00;98328.53;4857240;29;20073;-50
2021/06/29 07:07:22;;;;;;;4.18;2.25;;;;;;;20.85;100.00;98326.41;4854353;29;20477;-53
2021/06/29 07:09:48;;;;;;;2.83;1.98;;;;;;;20.88;100.00;98328.78;4854452;29;20516;-50
2021/06/29 07:12:14;;;;;;;4.97;3.38;;;;;;;20.91;100.00;98339.84;4857931;29;20532;-50
2021/06/29 07:14:39;;;;;;;3.65;2.08;;;;;;;20.84;98.62;98330.03;4850027;29;20520;-49
2021/06/29 07:17:05;;;;;;;4.80;2.08;;;;;;;20.81;99.89;98325.06;4852331;29;20086;-48
2021/06/29 07:19:31;;;;;;;2.65;2.10;;;;;;;20.76;99.78;98340.53;4860570;29;20184;-49
2021/06/29 07:21:57;;;;;;;3.22;2.08;;;;;;;20.72;100.00;98332.09;4857888;29;20041;-52
2021/06/29 07:24:22;;;;;;;4.53;2.15;;;;;;;20.65;100.00;98333.66;4855713;29;20397;-52
2021/06/29 07:29:43;;;;;;;2.10;1.90;;;;;;;20.48;100.00;98342.34;5027975;23;20065;-53
2021/06/29 07:32:10;;;;;;;3.35;2.40;;;;;;;20.54;100.00;98349.69;4852929;29;20045;-57
2021/06/29 07:34:35;;;;;;;4.47;2.80;;;;;;;20.58;100.00;98353.69;4848485;29;20046;-51
2021/06/29 07:37:01;;;;;;;4.80;2.17;;;;;;;20.60;100.00;98351.75;4854118;29;20601;-54
2021/06/29 07:39:27;;;;;;;4.65;2.55;;;;;;;20.71;100.00;98349.75;4837788;29;20054;-55
2021/06/29 07:41:53;;;;;;;2.95;2.00;;;;;;;20.86;99.41;98351.84;4836676;29;20130;-51
2021/06/29 07:44:18;;;;;;;3.17;2.10;;;;;;;20.97;96.21;98352.47;4823505;29;20046;-52
2021/06/29 07:46:44;;;;;;;3.38;2.15;;;;;;;21.27;91.47;98353.94;4840182;29;20050;-51
2021/06/29 07:49:10;;;;;;;5.28;2.00;;;;;;;21.61;90.38;98354.03;4836653;29;20042;-54
2021/06/29 07:51:37;;;;;;;2.47;1.73;;;;;;;21.72;86.69;98361.69;4829860;29;20076;-58
2021/06/29 07:54:02;;;;;;;2.55;1.77;;;;;;;21.76;86.78;98351.66;4837992;29;20041;-54
2021/06/29 07:56:28;;;;;;;3.95;1.80;;;;;;;21.86;86.78;98349.72;4834150;29;20589;-55
2021/06/29 07:58:54;;;;;;;1.70;1.55;;;;;;;21.85;87.64;98353.38;4837384;29;20054;-54
2021/06/29 08:01:20;;;;;;;1.65;1.52;;;;;;;21.50;90.96;98362.22;4830098;29;20501;-55
2021/06/29 08:03:46;;;;;;;3.85;2.00;;;;;;;21.20;94.76;98366.06;4844748;29;20050;-53
2021/06/29 08:06:12;;;;;;;5.97;2.22;;;;;;;21.05;98.82;98357.00;4838062;29;20042;-55
2021/06/29 08:08:38;;;;;;;2.97;2.03;;;;;;;20.96;96.92;98364.03;4841442;29;20570;-54
2021/06/29 08:11:08;;;;;;;4.47;1.75;;;;;;;20.95;94.80;98358.88;4847021;29;20046;-52
2021/06/29 08:13:34;;;;;;;3.88;2.33;;;;;;;21.02;94.43;98363.44;4851850;29;20093;-56
2021/06/29 08:16:00;;;;;;;2.50;2.05;;;;;;;21.33;90.45;98366.53;4844885;29;20081;-52
2021/06/29 08:18:28;;;;;;;3.03;2.10;;;;;;;21.45;88.46;98364.50;4848612;29;20086;-54
2021/06/29 08:20:55;;;;;;;2.83;2.15;;;;;;;21.36;89.84;98371.50;4838395;29;20046;-54
2021/06/29 08:23:22;;;;;;;5.13;2.78;;;;;;;21.26;91.49;98362.84;4837213;29;20092;-55
2021/06/29 08:25:47;;;;;;;2.13;1.92;;;;;;;21.22;89.56;98366.78;4839315;29;20065;-54
2021/06/29 08:28:13;;;;;;;6.32;2.75;;;;;;;21.17;90.69;98366.41;4845980;29;20134;-52
2021/06/29 08:30:40;;;;;;;5.72;3.30;;;;;;;21.06;92.51;98363.94;4827659;29;20451;-56
2021/06/29 08:33:11;;;;;;;2.63;2.10;;;;;;;21.02;92.12;98365.22;4828098;29;20535;-53
2021/06/29 08:35:41;;;;;;;3.70;2.30;;;;;;;20.89;94.35;98377.97;4838726;29;20045;-51
2021/06/29 08:38:07;;;;;;;7.30;2.58;;;;;;;20.73;94.27;98383.91;4836641;29;20689;-53
2021/06/29 08:40:37;;;;;;;2.22;1.75;;;;;;;20.56;94.04;98414.59;4833317;29;20046;-53
2021/06/29 08:43:04;;;;;;;5.18;2.42;;;;;;;20.50;96.66;98391.41;4840067;29;20052;-52
2021/06/29 08:45:31;;;;;;;5.20;2.42;;;;;;;20.61;95.56;98387.75;4833844;29;20042;-54
2021/06/29 08:47:58;;;;;;;8.40;3.00;;;;;;;20.89;93.70;98396.47;4834314;29;20096;-57
2021/06/29 08:50:29;;;;;;;7.30;2.88;;;;;;;21.31;89.55;98386.16;4839491;29;20135;-54
2021/06/29 08:53:00;;;;;;;3.10;2.80;;;;;;;22.20;83.30;98394.78;4839727;29;20050;-56
2021/06/29 08:55:28;;;;;;;2.50;2.30;;;;;;;22.47;79.85;98386.63;4835776;29;20050;-55
2021/06/29 08:57:55;;;;;;;2.63;2.42;;;;;;;22.21;81.45;98378.75;4840553;29;20132;-55
2021/06/29 09:00:21;;;;;;;3.85;2.25;;;;;;;21.96;82.36;98393.66;4832363;29;20045;-53
2021/06/29 09:02:47;;;;;;;4.45;2.65;;;;;;;21.66;83.67;98396.72;4833554;29;20133;-55
2021/06/29 09:05:29;;;;;;;4.78;2.40;;;;;;;21.56;84.79;98390.72;4839990;29;20141;-55
2021/06/29 09:08:10;;;;;;;4.13;1.95;;;;;;;21.47;82.69;98392.44;4836075;29;20086;-55
2021/06/29 09:10:39;;;;;;;3.20;2.13;;;;;;;21.47;83.03;98392.44;4838966;29;20404;-54
2021/06/29 09:13:06;;;;;;;4.50;2.42;;;;;;;21.46;83.47;98380.19;4836439;29;20046;-54
2021/06/29 09:15:36;;;;;;;4.65;2.30;;;;;;;21.41;84.40;98390.38;4833256;29;20042;-56
2021/06/29 09:18:04;;;;;;;3.45;2.13;;;;;;;21.25;87.00;98390.25;4827748;29;20801;-54
2021/06/29 09:21:15;;;;;;;3.78;2.35;;;;;;;21.04;89.46;98387.06;4827553;29;20055;-55
2021/06/29 09:23:47;;;;;;;4.90;2.25;;;;;;;21.23;88.72;98392.22;4812662;29;20055;-55
2021/06/29 09:26:15;;;;;;;3.33;2.45;;;;;;;21.36;87.77;98395.31;4830563;29;20046;-56
2021/06/29 09:28:45;;;;;;;3.50;1.77;;;;;;;21.24;86.83;98395.72;4827760;29;20141;-54
2021/06/29 09:31:15;;;;;;;2.35;1.95;;;;;;;21.10;86.94;98395.19;4828508;29;20046;-52
2021/06/29 09:33:43;;;;;;;2.80;1.80;;;;;;;21.01;87.00;98396.09;4828015;29;20469;-55
2021/06/29 09:36:13;;;;;;;2.75;1.98;;;;;;;20.93;88.22;98403.13;4831625;29;20164;-54
2021/06/29 09:38:40;;;;;;;3.03;2.15;;;;;;;20.97;89.15;98393.91;4830710;29;20438;-54
2021/06/29 09:41:19;;;;;;;2.58;2.00;;;;;;;21.04;88.48;98406.38;4827238;29;20069;-55
2021/06/29 09:43:47;;;;;;;2.90;2.20;;;;;;;21.00;88.81;98401.53;4830032;29;20050;-56
2021/06/29 09:46:14;;;;;;;2.15;1.95;;;;;;;20.94;89.63;98415.34;4826348;29;20042;-56
2021/06/29 09:48:46;;;;;;;2.15;1.80;;;;;;;20.88;89.74;98408.03;5316047;23;20107;-53
2021/06/29 09:51:15;;;;;;;2.97;2.10;;;;;;;20.81;90.75;98413.06;4820631;29;20056;-57
2021/06/29 09:53:43;;;;;;;;;;;;;;;20.83;91.17;98424.31;4818598;29;20048;-54
2021/06/29 09:56:49;;;;;;;2.90;1.88;;;;;;;20.79;91.13;98420.28;4813798;29;20310;-54
2021/06/29 09:59:20;;;;;;;1.77;1.67;;;;;;;20.89;89.04;98420.25;4833251;29;20536;-52
2021/06/29 10:01:46;;;;;;;2.33;1.65;;;;;;;21.14;85.94;98419.56;4807860;29;20738;-56
2021/06/29 10:04:12;;;;;;;2.65;1.80;;;;;;;21.19;85.38;98433.16;4801980;29;20047;-54
2021/06/29 10:06:39;;;;;;;2.67;2.10;;;;;;;21.13;85.60;98418.72;4816177;29;20127;-54
2021/06/29 10:09:10;;;;;;;3.30;1.70;;;;;;;21.09;85.73;98435.81;4809704;29;20125;-55
2021/06/29 10:11:44;;;;;;;3.83;1.73;;;;;;;20.96;86.79;98430.06;4804183;29;20163;-55
2021/06/29 10:14:11;;;;;;;3.17;2.20;;;;;;;20.94;87.42;98413.53;4818877;29;20066;-52
2021/06/29 10:16:42;;;;;;;3.88;2.00;;;;;;;21.18;87.12;98426.22;4807248;29;20133;-54
2021/06/29 10:21:44;;;;;;;5.43;2.40;;;;;;;21.91;80.68;98424.19;4795251;29;20502;-51
2021/06/29 10:24:10;;;;;;;2.42;2.00;;;;;;;22.01;79.76;98426.78;4801795;29;20494;-51
2021/06/29 10:26:40;;;;;;;4.32;1.88;;;;;;;21.95;79.48;98433.50;4801012;29;20050;-52
2021/06/29 10:29:08;;;;;;;2.22;1.70;;;;;;;21.75;80.28;98409.03;4801742;29;20038;-53
2021/06/29 10:31:38;;;;;;;2.42;1.80;;;;;;;22.09;78.98;98427.63;4802281;29;20047;-55
2021/06/29 10:34:07;;;;;;;5.53;2.00;;;;;;;22.02;78.59;98421.31;4803131;29;20049;-56
2021/06/29 10:36:37;;;;;;;2.97;1.88;;;;;;;22.02;79.20;98418.69;4801213;29;20059;-51
2021/06/29 10:39:04;;;;;;;4.50;2.03;;;;;;;21.90;79.62;98430.47;4802086;29;20604;-53
2021/06/29 10:41:35;;;;;;;2.80;1.75;;;;;;;21.74;80.50;98431.16;4816960;29;20058;-55
2021/06/29 10:44:02;;;;;;;4.70;2.00;;;;;;;21.86;79.92;98426.47;4816085;29;20042;-52
2021/06/29 10:46:27;;;;;;;3.40;2.00;;;;;;;22.88;75.01;98415.97;4814241;29;20100;-53
2021/06/29 10:48:53;;;;;;;1.48;1.38;;;;;;;23.14;71.22;98419.34;4817578;29;20629;-55
2021/06/29 10:51:35;;;;;;;2.88;1.75;;;;;;;22.68;73.85;98424.16;4809871;29;20078;-54
2021/06/29 10:54:01;;;;;;;3.45;2.22;;;;;;;22.29;75.35;98428.28;4811852;29;20047;-57
2021/06/29 10:56:51;;;;;;;3.08;1.80;;;;;;;21.83;78.59;98422.31;4813617;29;20525;-53
2021/06/29 10:59:17;;;;;;;1.85;1.30;;;;;;;21.69;80.01;98414.94;4817123;29;20039;-61
2021/06/29 11:01:54;;;;;;;4.20;1.60;;;;;;;21.53;80.71;98422.72;4809561;29;20054;-60
2021/06/29 11:05:18;;;;;;;1.77;1.52;;;;;;;21.41;82.21;98432.69;4816981;29;20038;-59
2021/06/29 11:10:36;;;;;;;3.50;1.88;;;;;;;21.19;84.16;98429.69;4842759;29;20157;-62
2021/06/29 11:13:03;;;;;;;3.22;1.50;;;;;;;21.27;84.07;98433.22;4848625;29;20153;-63
2021/06/29 11:15:39;;;;;;;5.38;1.75;;;;;;;21.52;83.11;98436.94;4847934;29;20049;-65
2021/06/29 11:18:05;;;;;;;2.90;1.70;;;;;;;22.06;79.16;98443.84;4844007;29;20114;-64
2021/06/29 11:20:41;;;;;;;3.15;1.38;;;;;;;22.73;72.92;98440.44;4838461;29;20050;-62
2021/06/29 11:23:31;;;;;;;1.45;1.15;;;;;;;22.36;75.26;98427.47;4846933;29;20049;-63
2021/06/29 11:26:00;;;;;;;2.03;1.40;;;;;;;22.10;77.32;98439.91;4821887;29;20517;-63
2021/06/29 11:28:37;;;;;;;1.10;0.80;;;;;;;21.81;78.56;98436.69;4846318;29;20048;-64
2021/06/29 11:31:26;;;;;;;1.88;1.27;;;;;;;21.64;80.34;98440.19;4845976;29;20045;-62
2021/06/29 11:34:10;;;;;;;2.15;1.27;;;;;;;21.50;78.56;98446.84;4845077;29;20045;-62
2021/06/29 11:36:36;;;;;;;3.30;1.17;;;;;;;21.44;79.75;98421.00;4852481;29;20073;-54
2021/06/29 11:39:17;;;;;;;2.03;1.38;;;;;;;21.38;80.37;98451.53;5337348;23;20119;-55
2021/06/29 11:41:57;;;;;;;2.05;1.35;;;;;;;21.52;80.20;98448.34;4864576;29;20037;-56
2021/06/29 11:44:23;;;;;;;7.55;2.00;;;;;;;22.28;75.43;98438.03;4868761;29;20050;-51
2021/06/29 11:46:53;;;;;;;2.90;1.50;;;;;;;22.33;74.98;98448.16;4862211;29;20169;-52